createdAt,value
2018-05-14T00:00:01.790Z,55.20
2018-05-14T00:02:29.494Z,55.20
2018-05-14T00:04:57.246Z,55.30
2018-05-14T00:07:24.998Z,55.30
2018-05-14T00:09:52.767Z,55.40
2018-05-14T00:12:21.093Z,55.40
2018-05-14T00:14:49.789Z,55.40
2018-05-14T00:17:19.068Z,55.90
2018-05-14T00:19:47.520Z,55.40
2018-05-14T00:22:16.341Z,55.40
2018-05-14T00:24:44.530Z,55.40
2018-05-14T00:27:13.524Z,55.50
2018-05-14T00:29:41.403Z,55.40
2018-05-14T00:32:10.084Z,55.70
2018-05-14T00:34:39.445Z,55.90
2018-05-14T00:37:07.297Z,55.90
2018-05-14T00:39:34.869Z,55.90
2018-05-14T00:42:03.427Z,55.80
2018-05-14T00:44:31.111Z,55.80
2018-05-14T00:46:58.948Z,55.70
2018-05-14T00:49:27.528Z,55.80
2018-05-14T00:51:55.920Z,55.60
2018-05-14T00:54:23.738Z,55.50
2018-05-14T00:56:51.548Z,55.50
2018-05-14T00:59:19.131Z,55.50
2018-05-14T01:01:47.239Z,55.60
2018-05-14T01:04:15.171Z,55.50
2018-05-14T01:06:42.895Z,55.60
2018-05-14T01:09:12.405Z,55.60
2018-05-14T01:11:41.456Z,55.60
2018-05-14T01:14:09.179Z,55.60
2018-05-14T01:16:36.855Z,55.80
2018-05-14T01:19:04.583Z,56.00
2018-05-14T01:21:33.419Z,56.00
2018-05-14T01:24:01.016Z,56.00
2018-05-14T01:26:28.999Z,56.30
2018-05-14T01:28:56.950Z,56.40
2018-05-14T01:31:25.400Z,56.30
2018-05-14T01:33:53.033Z,56.40
2018-05-14T01:36:22.265Z,56.70
2018-05-14T01:38:50.369Z,56.70
2018-05-14T01:41:18.699Z,56.80
2018-05-14T01:43:46.372Z,56.70
2018-05-14T01:46:15.153Z,56.90
2018-05-14T01:48:42.916Z,56.80
2018-05-14T01:51:10.706Z,56.80
2018-05-14T01:53:38.500Z,57.00
2018-05-14T01:56:06.161Z,57.10
2018-05-14T01:58:34.013Z,57.10
2018-05-14T02:01:02.001Z,57.20
2018-05-14T02:03:29.917Z,57.40
2018-05-14T02:05:58.130Z,57.90
2018-05-14T02:08:26.185Z,57.70
2018-05-14T02:10:54.729Z,58.00
2018-05-14T02:13:23.294Z,58.10
2018-05-14T02:15:51.101Z,58.20
2018-05-14T02:18:19.030Z,58.30
2018-05-14T02:20:47.452Z,58.60
2018-05-14T02:23:15.247Z,59.10
2018-05-14T02:25:43.110Z,58.90
2018-05-14T02:28:11.542Z,59.00
2018-05-14T02:30:40.129Z,59.50
2018-05-14T02:33:08.602Z,59.50
2018-05-14T02:35:36.194Z,59.50
2018-05-14T02:38:03.767Z,59.30
2018-05-14T02:40:32.189Z,60.00
2018-05-14T02:42:59.991Z,59.50
2018-05-14T02:45:27.811Z,59.80
2018-05-14T02:47:55.443Z,59.80
2018-05-14T02:50:23.035Z,60.20
2018-05-14T02:52:50.741Z,60.10
2018-05-14T02:55:18.589Z,60.20
2018-05-14T02:57:46.373Z,60.80
2018-05-14T03:00:14.746Z,61.20
2018-05-14T03:02:43.022Z,60.80
2018-05-14T03:05:10.917Z,60.80
2018-05-14T03:07:38.747Z,60.90
2018-05-14T03:10:06.501Z,60.70
2018-05-14T03:12:34.185Z,61.00
2018-05-14T03:15:02.060Z,61.00
2018-05-14T03:17:31.265Z,61.10
2018-05-14T03:19:59.850Z,61.40
2018-05-14T03:22:28.367Z,61.40
2018-05-14T03:24:56.222Z,61.40
2018-05-14T03:27:23.970Z,61.50
2018-05-14T03:29:52.625Z,61.70
2018-05-14T03:32:20.563Z,61.60
2018-05-14T03:34:49.288Z,61.30
2018-05-14T03:37:17.235Z,60.80
2018-05-14T03:39:45.673Z,60.60
2018-05-14T03:42:13.749Z,60.50
2018-05-14T03:44:41.419Z,60.50
2018-05-14T03:47:09.249Z,60.70
2018-05-14T03:49:37.055Z,60.70
2018-05-14T03:52:05.050Z,60.70
2018-05-14T03:54:33.369Z,60.70
2018-05-14T03:57:01.956Z,60.60
2018-05-14T03:59:41.355Z,60.60
2018-05-14T04:02:22.054Z,61.00
2018-05-14T04:05:01.903Z,61.00
2018-05-14T04:07:30.903Z,61.00
2018-05-14T04:09:58.385Z,60.90
2018-05-14T04:12:26.968Z,60.40
2018-05-14T04:14:54.733Z,60.40
2018-05-14T04:17:23.058Z,60.20
2018-05-14T04:19:50.569Z,60.20
2018-05-14T04:22:19.239Z,60.10
2018-05-14T04:24:50.567Z,60.10
2018-05-14T04:27:18.878Z,60.20
2018-05-14T04:29:48.464Z,60.20
2018-05-14T04:32:16.154Z,60.20
2018-05-14T04:34:44.679Z,60.20
2018-05-14T04:37:13.455Z,60.10
2018-05-14T04:39:42.009Z,60.00
2018-05-14T04:42:10.818Z,59.10
2018-05-14T04:44:38.501Z,59.10
2018-05-14T04:47:06.307Z,58.80
2018-05-14T04:49:33.967Z,59.00
2018-05-14T04:52:01.575Z,59.00
2018-05-14T04:54:29.440Z,59.00
2018-05-14T04:56:57.274Z,58.80
2018-05-14T04:59:25.580Z,58.60
2018-05-14T05:01:53.198Z,58.70
2018-05-14T05:04:20.815Z,58.80
2018-05-14T05:06:48.678Z,58.70
2018-05-14T05:09:16.347Z,58.30
2018-05-14T05:11:44.096Z,58.20
2018-05-14T05:14:12.450Z,57.60
2018-05-14T05:16:40.092Z,57.60
2018-05-14T05:19:08.189Z,56.80
2018-05-14T05:21:36.003Z,57.10
2018-05-14T05:24:04.629Z,57.50
2018-05-14T05:26:32.499Z,57.60
2018-05-14T05:29:00.739Z,57.70
2018-05-14T05:31:28.043Z,57.50
2018-05-14T05:33:55.837Z,57.60
2018-05-14T05:36:23.542Z,57.60
2018-05-14T05:38:50.901Z,57.30
2018-05-14T05:41:18.592Z,57.30
2018-05-14T05:43:46.384Z,57.50
2018-05-14T05:46:13.981Z,57.60
2018-05-14T05:48:41.815Z,57.50
2018-05-14T05:51:10.261Z,56.70
2018-05-14T05:53:38.133Z,57.30
2018-05-14T05:56:05.820Z,56.30
2018-05-14T05:58:34.217Z,56.50
2018-05-14T06:01:01.971Z,56.50
2018-05-14T06:03:29.625Z,56.70
2018-05-14T06:05:58.012Z,56.80
2018-05-14T06:08:26.360Z,56.80
2018-05-14T06:10:54.728Z,56.70
2018-05-14T06:13:22.373Z,56.60
2018-05-14T06:15:50.953Z,56.60
2018-05-14T06:18:18.707Z,56.40
2018-05-14T06:20:46.408Z,56.30
2018-05-14T06:23:13.990Z,56.30
2018-05-14T06:25:41.669Z,56.30
2018-05-14T06:28:10.259Z,56.30
2018-05-14T06:30:38.792Z,56.10
2018-05-14T06:33:07.946Z,56.10
2018-05-14T06:35:36.556Z,55.40
2018-05-14T06:38:04.094Z,55.40
2018-05-14T06:40:31.851Z,55.20
2018-05-14T06:43:00.397Z,54.30
2018-05-14T06:45:28.054Z,54.90
2018-05-14T06:47:56.115Z,53.70
2018-05-14T06:50:24.007Z,53.50
2018-05-14T06:52:51.733Z,53.50
2018-05-14T06:55:19.520Z,53.70
2018-05-14T06:57:47.218Z,53.70
2018-05-14T07:00:16.344Z,52.80
2018-05-14T07:02:44.216Z,52.70
2018-05-14T07:05:12.974Z,52.20
2018-05-14T07:07:40.534Z,52.00
2018-05-14T07:10:08.169Z,51.70
2018-05-14T07:12:36.513Z,51.50
2018-05-14T07:15:04.560Z,51.80
2018-05-14T07:17:33.558Z,51.30
2018-05-14T07:20:01.958Z,50.50
2018-05-14T07:22:30.280Z,50.50
2018-05-14T07:24:58.135Z,50.60
2018-05-14T07:27:25.716Z,50.80
2018-05-14T07:29:53.449Z,50.70
2018-05-14T07:32:21.284Z,50.00
2018-05-14T07:34:49.028Z,49.50
2018-05-14T07:37:17.494Z,48.90
2018-05-14T07:39:45.404Z,48.80
2018-05-14T07:42:14.771Z,47.80
2018-05-14T07:44:42.582Z,47.80
2018-05-14T07:47:10.269Z,48.10
2018-05-14T07:49:37.993Z,48.20
2018-05-14T07:52:06.520Z,48.10
2018-05-14T07:54:34.384Z,48.20
2018-05-14T07:57:02.284Z,48.10
2018-05-14T07:59:29.928Z,48.00
2018-05-14T08:01:57.501Z,47.70
2018-05-14T08:04:25.373Z,47.20
2018-05-14T08:06:53.060Z,47.60
2018-05-14T08:09:21.390Z,47.10
2018-05-14T08:11:49.129Z,47.00
2018-05-14T08:14:17.547Z,46.10
2018-05-14T08:16:45.195Z,46.10
2018-05-14T08:19:12.976Z,46.50
2018-05-14T08:21:41.422Z,46.40
2018-05-14T08:24:09.051Z,46.20
2018-05-14T08:26:36.608Z,46.20
2018-05-14T08:29:05.358Z,45.60
2018-05-14T08:31:33.177Z,45.70
2018-05-14T08:34:01.907Z,45.30
2018-05-14T08:36:29.648Z,45.20
2018-05-14T08:38:57.607Z,44.40
2018-05-14T08:41:26.633Z,44.50
2018-05-14T08:43:54.677Z,44.50
2018-05-14T08:46:23.413Z,45.00
2018-05-14T08:48:51.897Z,44.90
2018-05-14T08:51:20.546Z,45.50
2018-05-14T08:53:48.182Z,45.70
2018-05-14T08:56:17.300Z,45.10
2018-05-14T08:58:46.091Z,44.70
2018-05-14T09:01:14.490Z,44.70
2018-05-14T09:03:42.336Z,44.80
2018-05-14T09:06:10.855Z,44.50
2018-05-14T09:08:38.828Z,44.50
2018-05-14T09:11:06.515Z,44.70
2018-05-14T09:13:34.623Z,44.40
2018-05-14T09:16:03.300Z,44.80
2018-05-14T09:18:32.041Z,44.90
2018-05-14T09:20:59.655Z,44.90
2018-05-14T09:23:28.164Z,44.90
2018-05-14T09:25:55.873Z,44.80
2018-05-14T09:28:23.948Z,43.80
2018-05-14T09:30:52.765Z,44.30
2018-05-14T09:33:21.201Z,43.90
2018-05-14T09:35:48.972Z,43.90
2018-05-14T09:38:17.873Z,44.10
2018-05-14T09:40:45.529Z,43.90
2018-05-14T09:43:13.301Z,43.40
2018-05-14T09:45:41.134Z,42.50
2018-05-14T09:48:10.095Z,42.90
2018-05-14T09:50:38.215Z,44.10
2018-05-14T09:53:05.802Z,43.80
2018-05-14T09:55:33.935Z,43.20
2018-05-14T09:58:02.561Z,43.30
2018-05-14T10:00:30.354Z,41.40
2018-05-14T10:02:59.109Z,41.20
2018-05-14T10:05:26.947Z,41.20
2018-05-14T10:07:55.754Z,41.90
2018-05-14T10:10:23.265Z,41.10
2018-05-14T10:12:51.667Z,39.40
2018-05-14T10:15:19.632Z,39.30
2018-05-14T10:17:47.353Z,40.00
2018-05-14T10:20:15.366Z,40.10
2018-05-14T10:22:43.298Z,39.60
2018-05-14T10:25:11.181Z,40.10
2018-05-14T10:27:39.213Z,41.20
2018-05-14T10:30:07.739Z,42.60
2018-05-14T10:32:36.851Z,42.00
2018-05-14T10:35:04.577Z,41.90
2018-05-14T10:37:32.231Z,44.30
2018-05-14T10:40:00.167Z,44.90
2018-05-14T10:42:27.850Z,45.70
2018-05-14T10:44:55.481Z,46.50
2018-05-14T10:47:23.347Z,47.20
2018-05-14T10:49:52.412Z,47.50
2018-05-14T10:52:21.097Z,47.00
2018-05-14T10:54:48.937Z,46.60
2018-05-14T10:57:16.581Z,46.40
2018-05-14T10:59:44.527Z,46.70
2018-05-14T11:02:12.204Z,45.80
2018-05-14T11:04:40.131Z,45.10
2018-05-14T11:07:07.921Z,46.30
2018-05-14T11:09:35.602Z,47.00
2018-05-14T11:12:03.491Z,45.40
2018-05-14T11:14:31.673Z,44.60
2018-05-14T11:17:00.295Z,44.40
2018-05-14T11:19:27.909Z,44.30
2018-05-14T11:21:56.456Z,44.40
2018-05-14T11:24:25.396Z,44.20
2018-05-14T11:26:53.860Z,44.10
2018-05-14T11:29:21.658Z,44.10
2018-05-14T11:31:49.822Z,43.90
2018-05-14T11:34:18.542Z,44.50
2018-05-14T11:36:47.239Z,43.80
2018-05-14T11:39:15.089Z,43.50
2018-05-14T11:41:42.779Z,43.10
2018-05-14T11:44:11.367Z,42.40
2018-05-14T11:46:40.631Z,42.50
2018-05-14T11:49:08.328Z,42.50
2018-05-14T11:51:36.854Z,42.40
2018-05-14T11:54:04.780Z,42.40
2018-05-14T11:56:33.524Z,43.90
2018-05-14T11:59:02.235Z,43.80
2018-05-14T12:01:30.027Z,44.30
2018-05-14T12:03:59.583Z,44.80
2018-05-14T12:06:27.821Z,44.70
2018-05-14T12:08:56.071Z,44.40
2018-05-14T12:11:24.806Z,44.10
2018-05-14T12:13:52.882Z,43.80
2018-05-14T12:16:20.897Z,43.40
2018-05-14T12:18:49.586Z,43.30
2018-05-14T12:21:17.222Z,42.60
2018-05-14T12:23:45.207Z,43.40
2018-05-14T12:26:13.807Z,43.80
2018-05-14T12:28:41.649Z,43.00
2018-05-14T12:31:09.376Z,42.30
2018-05-14T12:33:37.619Z,43.10
2018-05-14T12:36:05.586Z,42.40
2018-05-14T12:38:33.363Z,42.30
2018-05-14T12:41:01.236Z,41.20
2018-05-14T12:43:29.940Z,42.10
2018-05-14T12:45:57.989Z,42.10
2018-05-14T12:48:25.941Z,43.10
2018-05-14T12:50:54.898Z,43.20
2018-05-14T12:53:23.655Z,42.20
2018-05-14T12:55:51.471Z,41.80
2018-05-14T12:58:20.093Z,42.40
2018-05-14T13:00:47.841Z,41.50
2018-05-14T13:03:16.530Z,41.70
2018-05-14T13:05:44.867Z,41.90
2018-05-14T13:08:12.565Z,42.10
2018-05-14T13:10:40.736Z,42.00
2018-05-14T13:13:09.032Z,41.40
2018-05-14T13:15:37.505Z,41.10
2018-05-14T13:18:05.997Z,41.00
2018-05-14T13:20:34.263Z,40.50
2018-05-14T13:23:01.828Z,41.10
2018-05-14T13:25:30.643Z,41.10
2018-05-14T13:27:59.134Z,41.50
2018-05-14T13:30:27.409Z,42.40
2018-05-14T13:32:56.854Z,42.70
2018-05-14T13:35:25.762Z,42.60
2018-05-14T13:37:53.443Z,42.10
2018-05-14T13:40:21.235Z,42.30
2018-05-14T13:42:49.849Z,43.70
2018-05-14T13:45:18.677Z,43.60
2018-05-14T13:47:46.917Z,43.10
2018-05-14T13:50:15.859Z,43.20
2018-05-14T13:52:43.658Z,44.30
2018-05-14T13:55:12.432Z,43.80
2018-05-14T13:57:39.988Z,43.80
2018-05-14T14:00:08.473Z,41.70
2018-05-14T14:02:36.071Z,41.50
2018-05-14T14:05:03.963Z,41.50
2018-05-14T14:07:31.980Z,41.70
2018-05-14T14:10:00.674Z,42.20
2018-05-14T14:12:31.801Z,42.80
2018-05-14T14:14:59.861Z,42.80
2018-05-14T14:17:27.774Z,43.40
2018-05-14T14:19:56.351Z,43.30
2018-05-14T14:22:25.271Z,42.60
2018-05-14T14:24:53.284Z,42.50
2018-05-14T14:27:21.675Z,42.10
2018-05-14T14:29:49.655Z,42.30
2018-05-14T14:32:17.387Z,42.10
2018-05-14T14:34:45.153Z,41.90
2018-05-14T14:37:12.868Z,41.40
2018-05-14T14:39:40.334Z,41.20
2018-05-14T14:42:09.556Z,41.30
2018-05-14T14:44:37.094Z,41.20
2018-05-14T14:47:04.729Z,41.30
2018-05-14T14:49:32.598Z,41.40
2018-05-14T14:52:00.209Z,40.80
2018-05-14T14:54:27.920Z,40.30
2018-05-14T14:56:56.355Z,40.40
2018-05-14T14:59:24.232Z,40.20
2018-05-14T15:01:52.776Z,40.80
2018-05-14T15:04:21.305Z,41.00
2018-05-14T15:06:49.111Z,41.00
2018-05-14T15:09:17.570Z,41.00
2018-05-14T15:11:45.396Z,40.90
2018-05-14T15:14:12.937Z,40.70
2018-05-14T15:16:42.255Z,41.40
2018-05-14T15:19:10.754Z,41.30
2018-05-14T15:21:39.448Z,41.80
2018-05-14T15:24:07.702Z,42.40
2018-05-14T15:26:35.924Z,42.50
2018-05-14T15:29:04.408Z,42.90
2018-05-14T15:31:32.907Z,43.70
2018-05-14T15:34:01.463Z,44.00
2018-05-14T15:36:30.227Z,44.20
2018-05-14T15:38:58.616Z,44.00
2018-05-14T15:41:27.350Z,44.00
2018-05-14T15:43:55.878Z,44.30
2018-05-14T15:46:24.541Z,44.50
2018-05-14T15:48:53.233Z,44.90
2018-05-14T15:51:21.549Z,45.20
2018-05-14T15:53:49.738Z,45.70
2018-05-14T15:56:18.002Z,45.90
2018-05-14T15:58:46.262Z,46.40
2018-05-14T16:01:14.334Z,46.70
2018-05-14T16:03:42.838Z,47.20
2018-05-14T16:06:10.890Z,47.30
2018-05-14T16:08:39.128Z,47.70
2018-05-14T16:11:07.459Z,47.70
2018-05-14T16:13:35.453Z,47.80
2018-05-14T16:16:03.066Z,48.00
2018-05-14T16:18:31.019Z,48.30
2018-05-14T16:20:59.715Z,48.30
2018-05-14T16:23:28.291Z,48.40
2018-05-14T16:25:57.129Z,48.60
2018-05-14T16:28:25.652Z,48.60
2018-05-14T16:30:53.422Z,48.70
2018-05-14T16:33:21.478Z,48.70
2018-05-14T16:35:49.213Z,48.90
2018-05-14T16:38:17.822Z,48.80
2018-05-14T16:40:46.014Z,48.90
2018-05-14T16:43:13.831Z,49.00
2018-05-14T16:45:41.401Z,48.90
2018-05-14T16:48:09.058Z,48.80
2018-05-14T16:50:36.732Z,49.00
2018-05-14T16:53:04.567Z,49.00
2018-05-14T16:55:32.307Z,48.80
2018-05-14T16:58:00.314Z,48.90
2018-05-14T17:00:28.065Z,48.90
2018-05-14T17:02:56.917Z,49.30
2018-05-14T17:05:24.782Z,49.30
2018-05-14T17:07:52.579Z,49.10
2018-05-14T17:10:21.343Z,49.10
2018-05-14T17:12:49.081Z,49.10
2018-05-14T17:15:17.815Z,49.20
2018-05-14T17:17:45.674Z,49.00
2018-05-14T17:20:13.441Z,49.10
2018-05-14T17:22:41.154Z,49.30
2018-05-14T17:25:08.881Z,49.20
2018-05-14T17:27:37.380Z,49.50
2018-05-14T17:30:05.144Z,49.40
2018-05-14T17:32:33.690Z,49.60
2018-05-14T17:35:02.099Z,49.70
2018-05-14T17:37:30.400Z,49.70
2018-05-14T17:39:57.888Z,49.70
2018-05-14T17:42:25.441Z,49.60
2018-05-14T17:44:52.982Z,49.60
2018-05-14T17:47:20.558Z,49.50
2018-05-14T17:49:48.833Z,49.60
2018-05-14T17:52:16.386Z,49.70
2018-05-14T17:54:43.874Z,49.70
2018-05-14T17:57:11.407Z,50.40
2018-05-14T17:59:38.931Z,49.80
2018-05-14T18:02:06.482Z,49.80
2018-05-14T18:04:34.354Z,49.80
2018-05-14T18:07:01.988Z,49.80
2018-05-14T18:09:29.781Z,49.90
2018-05-14T18:11:57.847Z,50.00
2018-05-14T18:14:25.596Z,50.00
2018-05-14T18:16:53.115Z,50.10
2018-05-14T18:19:20.652Z,50.10
2018-05-14T18:21:49.548Z,50.30
2018-05-14T18:24:17.887Z,50.40
2018-05-14T18:26:46.446Z,50.40
2018-05-14T18:29:19.519Z,50.30
2018-05-14T18:31:53.357Z,50.60
2018-05-14T18:34:20.991Z,50.50
2018-05-14T18:36:48.538Z,50.60
2018-05-14T18:39:16.979Z,50.80
2018-05-14T18:41:44.825Z,50.70
2018-05-14T18:44:14.268Z,50.90
2018-05-14T18:46:41.863Z,51.10
2018-05-14T18:49:10.167Z,51.40
2018-05-14T18:51:38.168Z,51.30
2018-05-14T18:54:06.919Z,51.50
2018-05-14T18:56:34.556Z,51.50
2018-05-14T18:59:02.890Z,51.80
2018-05-14T19:01:30.520Z,51.80
2018-05-14T19:03:58.285Z,51.80
2018-05-14T19:06:25.881Z,51.80
2018-05-14T19:08:53.495Z,52.00
2018-05-14T19:11:26.670Z,52.20
2018-05-14T19:13:55.393Z,52.50
2018-05-14T19:16:28.950Z,52.50
2018-05-14T19:18:58.346Z,52.70
2018-05-14T19:21:26.879Z,52.90
2018-05-14T19:23:54.653Z,52.80
2018-05-14T19:26:23.300Z,53.00
2018-05-14T19:28:57.541Z,53.20
2018-05-14T19:31:26.933Z,53.40
2018-05-14T19:34:00.664Z,53.50
2018-05-14T19:36:29.679Z,53.50
2018-05-14T19:38:58.213Z,53.70
2018-05-14T19:41:27.184Z,53.70
2018-05-14T19:43:56.071Z,53.80
2018-05-14T19:46:24.299Z,54.00
2018-05-14T19:48:52.812Z,54.10
2018-05-14T19:51:21.079Z,54.20
2018-05-14T19:53:50.579Z,54.50
2018-05-14T19:56:19.952Z,55.10
2018-05-14T19:58:49.269Z,55.20
2018-05-14T20:01:17.794Z,55.20
2018-05-14T20:03:46.160Z,55.40
2018-05-14T20:06:15.015Z,55.70
2018-05-14T20:08:43.710Z,55.80
2018-05-14T20:11:12.161Z,56.00
2018-05-14T20:13:41.356Z,56.30
2018-05-14T20:16:10.341Z,56.20
2018-05-14T20:18:38.191Z,56.10
2018-05-14T20:21:06.171Z,56.10
2018-05-14T20:23:34.072Z,56.30
2018-05-14T20:26:02.401Z,57.00
2018-05-14T20:28:30.340Z,57.00
2018-05-14T20:30:59.175Z,57.50
2018-05-14T20:33:28.074Z,57.10
2018-05-14T20:35:55.701Z,57.10
2018-05-14T20:38:25.056Z,57.20
2018-05-14T20:40:52.895Z,57.40
2018-05-14T20:43:21.159Z,57.80
2018-05-14T20:45:49.526Z,57.80
2018-05-14T20:48:17.407Z,57.90
2018-05-14T20:50:45.731Z,58.10
2018-05-14T20:53:14.109Z,58.60
2018-05-14T20:55:42.204Z,58.90
2018-05-14T20:58:10.978Z,58.90
2018-05-14T21:00:39.241Z,58.90
2018-05-14T21:03:09.121Z,58.80
2018-05-14T21:05:38.399Z,58.60
2018-05-14T21:08:06.590Z,58.70
2018-05-14T21:10:34.984Z,58.70
2018-05-14T21:13:03.352Z,58.40
2018-05-14T21:15:31.516Z,58.70
2018-05-14T21:18:00.859Z,58.20
2018-05-14T21:20:28.911Z,58.30
2018-05-14T21:22:57.272Z,58.40
2018-05-14T21:25:25.822Z,58.60
2018-05-14T21:27:54.471Z,59.00
2018-05-14T21:30:22.118Z,58.90
2018-05-14T21:32:50.548Z,59.20
2018-05-14T21:35:18.370Z,59.00
2018-05-14T21:37:46.132Z,65.10
2018-05-14T21:40:14.278Z,59.30
2018-05-14T21:42:42.966Z,59.70
2018-05-14T21:45:10.862Z,59.60
2018-05-14T21:47:39.359Z,60.60
2018-05-14T21:50:08.716Z,60.60
2018-05-14T21:52:37.385Z,60.60
2018-05-14T21:55:05.650Z,61.10
2018-05-14T21:57:34.256Z,61.10
2018-05-14T22:00:02.885Z,61.50
2018-05-14T22:02:31.490Z,61.50
2018-05-14T22:05:00.228Z,61.20
2018-05-14T22:07:29.203Z,61.60
2018-05-14T22:09:57.161Z,61.50
2018-05-14T22:12:25.145Z,61.80
2018-05-14T22:14:54.612Z,62.90
2018-05-14T22:17:22.810Z,62.80
2018-05-14T22:19:51.444Z,62.70
2018-05-14T22:22:20.172Z,62.80
2018-05-14T22:24:48.309Z,63.00
2018-05-14T22:27:16.542Z,63.20
2018-05-14T22:29:44.681Z,63.20
2018-05-14T22:32:13.243Z,63.30
2018-05-14T22:34:41.364Z,63.50
2018-05-14T22:37:09.743Z,63.80
2018-05-14T22:39:38.082Z,64.20
2018-05-14T22:42:06.113Z,64.90
2018-05-14T22:44:34.303Z,65.10
2018-05-14T22:47:02.811Z,66.20
2018-05-14T22:49:31.103Z,65.80
2018-05-14T22:51:59.348Z,66.50
2018-05-14T22:54:37.445Z,66.20
2018-05-14T22:57:06.263Z,67.00
2018-05-14T22:59:34.708Z,66.90
2018-05-14T23:02:03.273Z,67.40
2018-05-14T23:04:32.784Z,67.30
2018-05-14T23:07:00.636Z,68.20
2018-05-14T23:09:29.007Z,68.60
2018-05-14T23:11:57.244Z,68.70
2018-05-14T23:14:25.623Z,68.90
2018-05-14T23:16:54.745Z,70.20
2018-05-14T23:19:22.929Z,70.00
2018-05-14T23:21:51.695Z,70.40
2018-05-14T23:24:20.429Z,71.50
2018-05-14T23:26:48.436Z,71.00
2018-05-14T23:29:16.540Z,71.50
2018-05-14T23:31:44.718Z,72.80
2018-05-14T23:34:12.887Z,72.90
2018-05-14T23:36:41.003Z,73.60
2018-05-14T23:39:08.665Z,73.40
2018-05-14T23:41:38.116Z,73.70
2018-05-14T23:44:07.253Z,76.00
2018-05-14T23:46:35.563Z,75.90
2018-05-14T23:49:03.770Z,76.60
2018-05-14T23:51:32.994Z,78.00
2018-05-14T23:54:01.942Z,78.00
2018-05-14T23:56:30.497Z,78.40
2018-05-14T23:58:59.799Z,78.70
